sensor_id;sensor_type;location;lat;lon;timestamp;temperature;humidity
25208;DHT22;13153;52.316;21.166;2023-10-08T00:02:45;13.00;99.90
25208;DHT22;13153;52.316;21.166;2023-10-08T00:05:11;13.00;99.90
25208;DHT22;13153;52.316;21.166;2023-10-08T00:07:40;13.00;99.90
25208;DHT22;13153;52.316;21.166;2023-10-08T00:10:08;13.00;99.90
25208;DHT22;13153;52.316;21.166;2023-10-08T00:12:34;13.00;99.90
25208;DHT22;13153;52.316;21.166;2023-10-08T00:15:00;13.00;99.90
25208;DHT22;13153;52.316;21.166;2023-10-08T00:17:26;12.90;99.90
25208;DHT22;13153;52.316;21.166;2023-10-08T00:19:52;12.90;99.90
25208;DHT22;13153;52.316;21.166;2023-10-08T00:22:18;12.90;99.90
25208;DHT22;13153;52.316;21.166;2023-10-08T00:24:45;13.00;99.90
25208;DHT22;13153;52.316;21.166;2023-10-08T00:27:12;13.00;99.90
25208;DHT22;13153;52.316;21.166;2023-10-08T00:29:40;12.90;99.90
25208;DHT22;13153;52.316;21.166;2023-10-08T00:32:08;12.90;99.90
25208;DHT22;13153;52.316;21.166;2023-10-08T00:34:41;12.90;99.90
25208;DHT22;13153;52.316;21.166;2023-10-08T00:37:09;12.90;99.90
25208;DHT22;13153;52.316;21.166;2023-10-08T00:39:39;12.90;99.90
25208;DHT22;13153;52.316;21.166;2023-10-08T00:42:06;12.90;99.90
25208;DHT22;13153;52.316;21.166;2023-10-08T00:44:36;12.90;99.90
25208;DHT22;13153;52.316;21.166;2023-10-08T00:47:17;12.90;99.90
25208;DHT22;13153;52.316;21.166;2023-10-08T00:49:46;12.90;99.90
25208;DHT22;13153;52.316;21.166;2023-10-08T00:52:28;12.90;99.90
25208;DHT22;13153;52.316;21.166;2023-10-08T00:54:56;12.80;99.90
25208;DHT22;13153;52.316;21.166;2023-10-08T00:57:27;12.80;99.90
25208;DHT22;13153;52.316;21.166;2023-10-08T00:59:56;12.80;99.90
25208;DHT22;13153;52.316;21.166;2023-10-08T01:02:28;12.80;99.90
25208;DHT22;13153;52.316;21.166;2023-10-08T01:05:08;12.80;99.90
25208;DHT22;13153;52.316;21.166;2023-10-08T01:07:36;12.80;1.00
25208;DHT22;13153;52.316;21.166;2023-10-08T01:10:05;12.80;1.00
25208;DHT22;13153;52.316;21.166;2023-10-08T01:12:36;12.80;1.00
25208;DHT22;13153;52.316;21.166;2023-10-08T01:15:14;12.80;1.00
25208;DHT22;13153;52.316;21.166;2023-10-08T01:17:49;12.70;1.00
25208;DHT22;13153;52.316;21.166;2023-10-08T01:20:35;12.70;1.00
25208;DHT22;13153;52.316;21.166;2023-10-08T01:23:06;12.70;1.00
25208;DHT22;13153;52.316;21.166;2023-10-08T01:25:45;12.70;1.00
25208;DHT22;13153;52.316;21.166;2023-10-08T01:28:23;12.70;1.00
25208;DHT22;13153;52.316;21.166;2023-10-08T01:30:54;12.70;1.00
25208;DHT22;13153;52.316;21.166;2023-10-08T01:33:26;12.70;1.00
25208;DHT22;13153;52.316;21.166;2023-10-08T01:35:56;12.70;1.00
25208;DHT22;13153;52.316;21.166;2023-10-08T01:38:29;12.70;1.00
25208;DHT22;13153;52.316;21.166;2023-10-08T01:40:56;12.70;1.00
25208;DHT22;13153;52.316;21.166;2023-10-08T01:43:22;12.70;1.00
25208;DHT22;13153;52.316;21.166;2023-10-08T01:45:48;12.70;1.00
25208;DHT22;13153;52.316;21.166;2023-10-08T01:48:17;12.70;1.00
25208;DHT22;13153;52.316;21.166;2023-10-08T01:50:57;12.70;1.00
25208;DHT22;13153;52.316;21.166;2023-10-08T01:53:29;12.70;1.00
25208;DHT22;13153;52.316;21.166;2023-10-08T01:55:56;12.70;1.00
25208;DHT22;13153;52.316;21.166;2023-10-08T01:58:23;12.70;1.00
25208;DHT22;13153;52.316;21.166;2023-10-08T02:00:49;12.70;1.00
25208;DHT22;13153;52.316;21.166;2023-10-08T02:03:17;12.60;1.00
25208;DHT22;13153;52.316;21.166;2023-10-08T02:05:46;12.60;1.00
25208;DHT22;13153;52.316;21.166;2023-10-08T02:08:12;12.60;1.00
25208;DHT22;13153;52.316;21.166;2023-10-08T02:10:41;12.60;1.00
25208;DHT22;13153;52.316;21.166;2023-10-08T02:13:13;12.60;1.00
25208;DHT22;13153;52.316;21.166;2023-10-08T02:15:51;12.60;1.00
25208;DHT22;13153;52.316;21.166;2023-10-08T02:18:18;12.50;1.00
25208;DHT22;13153;52.316;21.166;2023-10-08T02:20:44;12.60;1.00
25208;DHT22;13153;52.316;21.166;2023-10-08T02:23:11;12.50;1.00
25208;DHT22;13153;52.316;21.166;2023-10-08T02:25:40;12.50;99.90
25208;DHT22;13153;52.316;21.166;2023-10-08T02:28:09;12.50;99.90
25208;DHT22;13153;52.316;21.166;2023-10-08T02:30:38;12.50;99.90
25208;DHT22;13153;52.316;21.166;2023-10-08T02:33:05;12.50;99.90
25208;DHT22;13153;52.316;21.166;2023-10-08T02:35:43;12.50;99.90
25208;DHT22;13153;52.316;21.166;2023-10-08T02:38:11;12.40;99.90
25208;DHT22;13153;52.316;21.166;2023-10-08T02:40:41;12.40;99.90
25208;DHT22;13153;52.316;21.166;2023-10-08T02:43:12;12.40;99.90
25208;DHT22;13153;52.316;21.166;2023-10-08T02:45:41;12.40;99.90
25208;DHT22;13153;52.316;21.166;2023-10-08T02:48:08;12.40;99.90
25208;DHT22;13153;52.316;21.166;2023-10-08T02:50:39;12.40;99.90
25208;DHT22;13153;52.316;21.166;2023-10-08T02:53:11;12.40;1.00
25208;DHT22;13153;52.316;21.166;2023-10-08T02:55:40;12.40;1.00
25208;DHT22;13153;52.316;21.166;2023-10-08T02:58:10;12.40;1.00
25208;DHT22;13153;52.316;21.166;2023-10-08T03:00:44;12.40;1.00
25208;DHT22;13153;52.316;21.166;2023-10-08T03:03:17;12.30;1.00
25208;DHT22;13153;52.316;21.166;2023-10-08T03:05:49;12.40;1.00
25208;DHT22;13153;52.316;21.166;2023-10-08T03:08:17;12.40;1.00
25208;DHT22;13153;52.316;21.166;2023-10-08T03:10:47;12.30;99.90
25208;DHT22;13153;52.316;21.166;2023-10-08T03:13:28;12.30;99.90
25208;DHT22;13153;52.316;21.166;2023-10-08T03:15:54;12.30;99.90
25208;DHT22;13153;52.316;21.166;2023-10-08T03:18:26;12.30;1.00
25208;DHT22;13153;52.316;21.166;2023-10-08T03:21:01;12.40;1.00
25208;DHT22;13153;52.316;21.166;2023-10-08T03:23:31;12.30;1.00
25208;DHT22;13153;52.316;21.166;2023-10-08T03:26:03;12.20;1.00
25208;DHT22;13153;52.316;21.166;2023-10-08T03:28:55;12.20;1.00
25208;DHT22;13153;52.316;21.166;2023-10-08T03:31:23;12.30;99.90
25208;DHT22;13153;52.316;21.166;2023-10-08T03:34:12;12.20;99.90
25208;DHT22;13153;52.316;21.166;2023-10-08T03:36:43;12.20;99.90
25208;DHT22;13153;52.316;21.166;2023-10-08T03:39:14;12.20;48.10
25208;DHT22;13153;52.316;21.166;2023-10-08T03:41:41;12.20;1.00
25208;DHT22;13153;52.316;21.166;2023-10-08T03:44:08;12.20;1.00
25208;DHT22;13153;52.316;21.166;2023-10-08T03:46:42;12.10;1.00
25208;DHT22;13153;52.316;21.166;2023-10-08T03:49:12;12.10;1.00
25208;DHT22;13153;52.316;21.166;2023-10-08T03:51:48;12.10;99.90
25208;DHT22;13153;52.316;21.166;2023-10-08T03:54:18;12.10;99.90
25208;DHT22;13153;52.316;21.166;2023-10-08T03:56:45;12.10;1.00
25208;DHT22;13153;52.316;21.166;2023-10-08T03:59:15;12.00;1.00
25208;DHT22;13153;52.316;21.166;2023-10-08T04:02:03;12.00;1.00
25208;DHT22;13153;52.316;21.166;2023-10-08T04:04:49;12.00;1.00
25208;DHT22;13153;52.316;21.166;2023-10-08T04:07:18;11.90;99.90
25208;DHT22;13153;52.316;21.166;2023-10-08T04:09:55;11.80;22.80
25208;DHT22;13153;52.316;21.166;2023-10-08T04:12:33;11.80;1.00
25208;DHT22;13153;52.316;21.166;2023-10-08T04:15:07;11.80;1.00
25208;DHT22;13153;52.316;21.166;2023-10-08T04:17:35;11.80;1.00
25208;DHT22;13153;52.316;21.166;2023-10-08T04:20:19;11.70;1.00
25208;DHT22;13153;52.316;21.166;2023-10-08T04:23:08;11.70;99.90
25208;DHT22;13153;52.316;21.166;2023-10-08T04:25:43;11.70;99.90
25208;DHT22;13153;52.316;21.166;2023-10-08T04:28:09;11.60;99.90
25208;DHT22;13153;52.316;21.166;2023-10-08T04:30:44;11.60;65.50
25208;DHT22;13153;52.316;21.166;2023-10-08T04:33:10;11.60;12.00
25208;DHT22;13153;52.316;21.166;2023-10-08T04:35:41;11.60;17.10
25208;DHT22;13153;52.316;21.166;2023-10-08T04:38:19;11.50;1.00
25208;DHT22;13153;52.316;21.166;2023-10-08T04:40:48;11.50;1.00
25208;DHT22;13153;52.316;21.166;2023-10-08T04:43:17;11.40;1.00
25208;DHT22;13153;52.316;21.166;2023-10-08T04:45:54;11.40;1.00
25208;DHT22;13153;52.316;21.166;2023-10-08T04:48:23;11.30;1.00
25208;DHT22;13153;52.316;21.166;2023-10-08T04:50:51;11.30;1.00
25208;DHT22;13153;52.316;21.166;2023-10-08T04:53:36;11.30;1.00
25208;DHT22;13153;52.316;21.166;2023-10-08T04:56:07;11.30;1.00
25208;DHT22;13153;52.316;21.166;2023-10-08T04:58:43;11.30;1.00
25208;DHT22;13153;52.316;21.166;2023-10-08T05:01:13;11.30;1.00
25208;DHT22;13153;52.316;21.166;2023-10-08T05:03:58;11.30;99.90
25208;DHT22;13153;52.316;21.166;2023-10-08T05:06:27;11.40;99.90
25208;DHT22;13153;52.316;21.166;2023-10-08T05:11:46;11.50;99.90
25208;DHT22;13153;52.316;21.166;2023-10-08T05:14:18;11.70;99.90
25208;DHT22;13153;52.316;21.166;2023-10-08T05:17:07;11.90;6.20
25208;DHT22;13153;52.316;21.166;2023-10-08T05:19:40;12.10;1.00
25208;DHT22;13153;52.316;21.166;2023-10-08T05:22:11;12.30;99.90
25208;DHT22;13153;52.316;21.166;2023-10-08T05:25:07;12.50;1.00
25208;DHT22;13153;52.316;21.166;2023-10-08T05:27:40;12.80;16.50
25208;DHT22;13153;52.316;21.166;2023-10-08T05:30:16;12.90;49.80
25208;DHT22;13153;52.316;21.166;2023-10-08T05:32:56;13.20;1.00
25208;DHT22;13153;52.316;21.166;2023-10-08T05:35:29;13.30;1.00
25208;DHT22;13153;52.316;21.166;2023-10-08T05:38:04;13.50;99.90
25208;DHT22;13153;52.316;21.166;2023-10-08T05:40:42;13.70;22.30
25208;DHT22;13153;52.316;21.166;2023-10-08T05:43:24;13.80;1.00
25208;DHT22;13153;52.316;21.166;2023-10-08T05:46:03;14.00;1.00
25208;DHT22;13153;52.316;21.166;2023-10-08T05:48:54;14.20;1.00
25208;DHT22;13153;52.316;21.166;2023-10-08T05:51:29;14.30;99.90
25208;DHT22;13153;52.316;21.166;2023-10-08T05:54:17;14.60;99.90
25208;DHT22;13153;52.316;21.166;2023-10-08T05:57:03;14.90;91.20
25208;DHT22;13153;52.316;21.166;2023-10-08T05:59:36;15.10;1.00
25208;DHT22;13153;52.316;21.166;2023-10-08T06:02:19;15.30;1.00
25208;DHT22;13153;52.316;21.166;2023-10-08T06:04:54;15.40;1.00
25208;DHT22;13153;52.316;21.166;2023-10-08T06:07:42;15.60;99.90
25208;DHT22;13153;52.316;21.166;2023-10-08T06:12:58;15.90;99.90
25208;DHT22;13153;52.316;21.166;2023-10-08T06:15:46;16.10;4.80
25208;DHT22;13153;52.316;21.166;2023-10-08T06:18:24;16.10;1.00
25208;DHT22;13153;52.316;21.166;2023-10-08T06:20:59;16.20;1.00
25208;DHT22;13153;52.316;21.166;2023-10-08T06:23:26;16.30;99.90
25208;DHT22;13153;52.316;21.166;2023-10-08T06:25:55;16.30;99.90
25208;DHT22;13153;52.316;21.166;2023-10-08T06:28:25;16.40;99.90
25208;DHT22;13153;52.316;21.166;2023-10-08T06:30:55;16.60;99.90
25208;DHT22;13153;52.316;21.166;2023-10-08T06:33:24;16.70;99.90
25208;DHT22;13153;52.316;21.166;2023-10-08T06:35:56;16.70;34.80
25208;DHT22;13153;52.316;21.166;2023-10-08T06:38:43;16.60;71.50
25208;DHT22;13153;52.316;21.166;2023-10-08T06:41:14;16.50;99.90
25208;DHT22;13153;52.316;21.166;2023-10-08T06:43:44;16.50;1.00
25208;DHT22;13153;52.316;21.166;2023-10-08T06:46:39;16.50;1.00
25208;DHT22;13153;52.316;21.166;2023-10-08T06:49:07;16.60;1.00
25208;DHT22;13153;52.316;21.166;2023-10-08T06:51:40;16.60;1.00
25208;DHT22;13153;52.316;21.166;2023-10-08T06:54:08;16.60;1.00
25208;DHT22;13153;52.316;21.166;2023-10-08T06:56:42;16.60;1.00
25208;DHT22;13153;52.316;21.166;2023-10-08T06:59:15;16.60;1.00
25208;DHT22;13153;52.316;21.166;2023-10-08T07:01:44;16.70;1.00
25208;DHT22;13153;52.316;21.166;2023-10-08T07:04:13;16.70;99.90
25208;DHT22;13153;52.316;21.166;2023-10-08T07:06:42;16.70;99.90
25208;DHT22;13153;52.316;21.166;2023-10-08T07:09:09;16.60;1.00
25208;DHT22;13153;52.316;21.166;2023-10-08T07:11:56;16.60;1.00
25208;DHT22;13153;52.316;21.166;2023-10-08T07:14:26;16.60;1.00
25208;DHT22;13153;52.316;21.166;2023-10-08T07:16:54;16.60;1.00
25208;DHT22;13153;52.316;21.166;2023-10-08T07:19:28;16.70;1.00
25208;DHT22;13153;52.316;21.166;2023-10-08T07:22:03;16.60;1.00
25208;DHT22;13153;52.316;21.166;2023-10-08T07:24:34;16.70;99.90
25208;DHT22;13153;52.316;21.166;2023-10-08T07:27:03;16.80;99.90
25208;DHT22;13153;52.316;21.166;2023-10-08T07:29:35;16.80;99.90
25208;DHT22;13153;52.316;21.166;2023-10-08T07:32:01;16.80;99.90
25208;DHT22;13153;52.316;21.166;2023-10-08T07:34:36;16.80;99.90
25208;DHT22;13153;52.316;21.166;2023-10-08T07:37:02;16.80;99.90
25208;DHT22;13153;52.316;21.166;2023-10-08T07:39:28;16.80;99.90
25208;DHT22;13153;52.316;21.166;2023-10-08T07:41:59;16.80;99.90
25208;DHT22;13153;52.316;21.166;2023-10-08T07:44:26;16.90;99.90
25208;DHT22;13153;52.316;21.166;2023-10-08T07:46:54;17.00;99.90
25208;DHT22;13153;52.316;21.166;2023-10-08T07:49:20;17.00;99.90
25208;DHT22;13153;52.316;21.166;2023-10-08T07:51:48;17.10;1.00
25208;DHT22;13153;52.316;21.166;2023-10-08T07:54:22;17.00;1.00
25208;DHT22;13153;52.316;21.166;2023-10-08T07:56:53;16.90;99.90
25208;DHT22;13153;52.316;21.166;2023-10-08T07:59:41;16.90;99.90
25208;DHT22;13153;52.316;21.166;2023-10-08T08:02:11;16.80;99.90
25208;DHT22;13153;52.316;21.166;2023-10-08T08:04:40;16.80;99.90
25208;DHT22;13153;52.316;21.166;2023-10-08T08:07:09;16.80;99.90
25208;DHT22;13153;52.316;21.166;2023-10-08T08:09:49;16.90;99.90
25208;DHT22;13153;52.316;21.166;2023-10-08T08:12:20;17.00;99.90
25208;DHT22;13153;52.316;21.166;2023-10-08T08:14:47;17.10;99.90
25208;DHT22;13153;52.316;21.166;2023-10-08T08:17:14;17.20;94.50
25208;DHT22;13153;52.316;21.166;2023-10-08T08:19:41;17.20;99.90
25208;DHT22;13153;52.316;21.166;2023-10-08T08:22:10;17.10;99.90
25208;DHT22;13153;52.316;21.166;2023-10-08T08:24:47;17.10;99.90
25208;DHT22;13153;52.316;21.166;2023-10-08T08:27:30;17.10;99.90
25208;DHT22;13153;52.316;21.166;2023-10-08T08:30:01;17.20;99.90
25208;DHT22;13153;52.316;21.166;2023-10-08T08:32:41;17.30;99.90
25208;DHT22;13153;52.316;21.166;2023-10-08T08:35:13;17.30;99.90
25208;DHT22;13153;52.316;21.166;2023-10-08T08:37:42;17.20;99.90
25208;DHT22;13153;52.316;21.166;2023-10-08T08:40:09;17.20;99.90
25208;DHT22;13153;52.316;21.166;2023-10-08T08:42:44;17.10;99.90
25208;DHT22;13153;52.316;21.166;2023-10-08T08:45:20;17.10;99.90
25208;DHT22;13153;52.316;21.166;2023-10-08T08:47:47;17.00;1.00
25208;DHT22;13153;52.316;21.166;2023-10-08T08:50:13;16.90;99.90
25208;DHT22;13153;52.316;21.166;2023-10-08T08:52:40;16.90;1.00
25208;DHT22;13153;52.316;21.166;2023-10-08T08:55:08;17.00;1.00
25208;DHT22;13153;52.316;21.166;2023-10-08T08:57:44;16.90;1.00
25208;DHT22;13153;52.316;21.166;2023-10-08T09:00:13;16.80;99.90
25208;DHT22;13153;52.316;21.166;2023-10-08T09:02:42;16.80;99.90
25208;DHT22;13153;52.316;21.166;2023-10-08T09:05:10;16.80;99.90
25208;DHT22;13153;52.316;21.166;2023-10-08T09:07:56;16.80;99.90
25208;DHT22;13153;52.316;21.166;2023-10-08T09:10:24;16.70;99.90
25208;DHT22;13153;52.316;21.166;2023-10-08T09:12:58;16.70;99.90
25208;DHT22;13153;52.316;21.166;2023-10-08T09:15:28;16.70;99.90
25208;DHT22;13153;52.316;21.166;2023-10-08T09:17:57;16.70;99.90
25208;DHT22;13153;52.316;21.166;2023-10-08T09:20:29;16.80;99.90
25208;DHT22;13153;52.316;21.166;2023-10-08T09:23:07;16.80;99.90
25208;DHT22;13153;52.316;21.166;2023-10-08T09:25:47;16.80;99.90
25208;DHT22;13153;52.316;21.166;2023-10-08T09:28:17;16.90;99.90
25208;DHT22;13153;52.316;21.166;2023-10-08T09:30:44;17.00;99.90
25208;DHT22;13153;52.316;21.166;2023-10-08T09:33:14;17.00;99.90
25208;DHT22;13153;52.316;21.166;2023-10-08T09:35:42;16.90;99.90
25208;DHT22;13153;52.316;21.166;2023-10-08T09:38:11;16.80;99.90
25208;DHT22;13153;52.316;21.166;2023-10-08T09:40:38;16.80;99.90
25208;DHT22;13153;52.316;21.166;2023-10-08T09:43:13;16.90;99.90
25208;DHT22;13153;52.316;21.166;2023-10-08T09:45:47;16.90;99.90
25208;DHT22;13153;52.316;21.166;2023-10-08T09:48:16;16.90;99.90
25208;DHT22;13153;52.316;21.166;2023-10-08T09:50:47;16.80;1.00
25208;DHT22;13153;52.316;21.166;2023-10-08T09:53:20;16.70;1.00
25208;DHT22;13153;52.316;21.166;2023-10-08T09:56:14;16.70;99.90
25208;DHT22;13153;52.316;21.166;2023-10-08T10:01:29;16.60;99.90
25208;DHT22;13153;52.316;21.166;2023-10-08T10:03:59;16.60;99.90
25208;DHT22;13153;52.316;21.166;2023-10-08T10:06:26;16.60;99.90
25208;DHT22;13153;52.316;21.166;2023-10-08T10:08:56;16.60;99.90
25208;DHT22;13153;52.316;21.166;2023-10-08T10:11:30;16.60;1.00
25208;DHT22;13153;52.316;21.166;2023-10-08T10:13:58;16.50;1.00
25208;DHT22;13153;52.316;21.166;2023-10-08T10:16:25;16.30;1.00
25208;DHT22;13153;52.316;21.166;2023-10-08T10:19:00;16.20;99.90
25208;DHT22;13153;52.316;21.166;2023-10-08T10:21:33;16.10;99.90
25208;DHT22;13153;52.316;21.166;2023-10-08T10:23:59;16.00;99.90
25208;DHT22;13153;52.316;21.166;2023-10-08T10:26:30;16.00;99.90
25208;DHT22;13153;52.316;21.166;2023-10-08T10:31:42;16.00;99.90
25208;DHT22;13153;52.316;21.166;2023-10-08T10:34:26;16.00;1.00
25208;DHT22;13153;52.316;21.166;2023-10-08T10:36:57;15.90;99.90
25208;DHT22;13153;52.316;21.166;2023-10-08T10:39:28;15.90;99.90
25208;DHT22;13153;52.316;21.166;2023-10-08T10:42:00;15.80;99.90
25208;DHT22;13153;52.316;21.166;2023-10-08T10:44:28;15.80;99.90
25208;DHT22;13153;52.316;21.166;2023-10-08T10:46:59;15.70;99.90
25208;DHT22;13153;52.316;21.166;2023-10-08T10:49:46;15.80;99.90
25208;DHT22;13153;52.316;21.166;2023-10-08T10:52:22;15.80;99.90
25208;DHT22;13153;52.316;21.166;2023-10-08T10:55:10;15.80;99.90
25208;DHT22;13153;52.316;21.166;2023-10-08T10:57:49;15.90;99.90
25208;DHT22;13153;52.316;21.166;2023-10-08T11:00:25;15.80;99.90
25208;DHT22;13153;52.316;21.166;2023-10-08T11:02:58;15.90;99.90
25208;DHT22;13153;52.316;21.166;2023-10-08T11:05:29;15.90;99.90
25208;DHT22;13153;52.316;21.166;2023-10-08T11:07:57;16.00;1.00
25208;DHT22;13153;52.316;21.166;2023-10-08T11:10:37;16.00;99.90
25208;DHT22;13153;52.316;21.166;2023-10-08T11:13:05;16.00;99.90
25208;DHT22;13153;52.316;21.166;2023-10-08T11:15:43;16.00;99.90
25208;DHT22;13153;52.316;21.166;2023-10-08T11:18:16;16.00;99.90
25208;DHT22;13153;52.316;21.166;2023-10-08T11:20:48;16.00;99.90
25208;DHT22;13153;52.316;21.166;2023-10-08T11:23:37;15.90;99.90
25208;DHT22;13153;52.316;21.166;2023-10-08T11:26:07;15.80;99.90
25208;DHT22;13153;52.316;21.166;2023-10-08T11:28:38;15.80;99.90
25208;DHT22;13153;52.316;21.166;2023-10-08T11:31:11;15.70;76.00
25208;DHT22;13153;52.316;21.166;2023-10-08T11:33:42;15.70;72.60
25208;DHT22;13153;52.316;21.166;2023-10-08T11:36:30;15.70;52.80
25208;DHT22;13153;52.316;21.166;2023-10-08T11:39:10;15.70;92.90
25208;DHT22;13153;52.316;21.166;2023-10-08T11:41:39;15.60;1.00
25208;DHT22;13153;52.316;21.166;2023-10-08T11:44:16;15.60;18.50
25208;DHT22;13153;52.316;21.166;2023-10-08T11:46:45;15.60;70.20
25208;DHT22;13153;52.316;21.166;2023-10-08T11:49:17;15.60;99.90
25208;DHT22;13153;52.316;21.166;2023-10-08T11:51:44;15.40;99.90
25208;DHT22;13153;52.316;21.166;2023-10-08T11:54:14;15.40;99.90
25208;DHT22;13153;52.316;21.166;2023-10-08T11:56:40;15.30;99.90
25208;DHT22;13153;52.316;21.166;2023-10-08T11:59:06;15.20;1.00
25208;DHT22;13153;52.316;21.166;2023-10-08T12:01:37;15.20;1.00
25208;DHT22;13153;52.316;21.166;2023-10-08T12:04:08;15.10;1.00
25208;DHT22;13153;52.316;21.166;2023-10-08T12:06:42;15.10;1.00
25208;DHT22;13153;52.316;21.166;2023-10-08T12:09:17;15.00;1.00
25208;DHT22;13153;52.316;21.166;2023-10-08T12:11:47;15.00;1.00
25208;DHT22;13153;52.316;21.166;2023-10-08T12:14:13;15.00;1.00
25208;DHT22;13153;52.316;21.166;2023-10-08T12:16:41;15.10;1.00
25208;DHT22;13153;52.316;21.166;2023-10-08T12:19:07;15.10;99.90
25208;DHT22;13153;52.316;21.166;2023-10-08T12:21:42;15.20;1.00
25208;DHT22;13153;52.316;21.166;2023-10-08T12:24:12;15.20;1.00
25208;DHT22;13153;52.316;21.166;2023-10-08T12:26:38;15.20;1.00
25208;DHT22;13153;52.316;21.166;2023-10-08T12:29:14;15.20;1.00
25208;DHT22;13153;52.316;21.166;2023-10-08T12:31:42;15.10;1.00
25208;DHT22;13153;52.316;21.166;2023-10-08T12:34:13;15.10;99.90
25208;DHT22;13153;52.316;21.166;2023-10-08T12:36:39;14.90;99.90
25208;DHT22;13153;52.316;21.166;2023-10-08T12:39:05;14.90;99.90
25208;DHT22;13153;52.316;21.166;2023-10-08T12:41:53;14.90;99.90
25208;DHT22;13153;52.316;21.166;2023-10-08T12:44:19;14.80;99.90
25208;DHT22;13153;52.316;21.166;2023-10-08T12:46:45;14.80;99.90
25208;DHT22;13153;52.316;21.166;2023-10-08T12:49:14;14.60;99.90
25208;DHT22;13153;52.316;21.166;2023-10-08T12:51:39;14.60;1.00
25208;DHT22;13153;52.316;21.166;2023-10-08T12:54:07;14.50;1.00
25208;DHT22;13153;52.316;21.166;2023-10-08T12:56:36;14.50;1.00
25208;DHT22;13153;52.316;21.166;2023-10-08T12:59:14;14.50;1.00
25208;DHT22;13153;52.316;21.166;2023-10-08T13:01:49;14.60;1.00
25208;DHT22;13153;52.316;21.166;2023-10-08T13:04:20;14.70;1.00
25208;DHT22;13153;52.316;21.166;2023-10-08T13:06:54;14.70;1.00
25208;DHT22;13153;52.316;21.166;2023-10-08T13:09:26;14.70;1.00
25208;DHT22;13153;52.316;21.166;2023-10-08T13:11:52;14.70;1.00
25208;DHT22;13153;52.316;21.166;2023-10-08T13:14:18;14.70;1.00
25208;DHT22;13153;52.316;21.166;2023-10-08T13:16:44;14.80;1.00
25208;DHT22;13153;52.316;21.166;2023-10-08T13:19:10;14.80;1.00
25208;DHT22;13153;52.316;21.166;2023-10-08T13:21:37;14.80;1.00
25208;DHT22;13153;52.316;21.166;2023-10-08T13:24:03;14.80;1.00
25208;DHT22;13153;52.316;21.166;2023-10-08T13:26:34;14.80;99.90
25208;DHT22;13153;52.316;21.166;2023-10-08T13:29:03;14.60;99.90
25208;DHT22;13153;52.316;21.166;2023-10-08T13:31:29;14.60;99.90
25208;DHT22;13153;52.316;21.166;2023-10-08T13:33:55;14.60;99.90
25208;DHT22;13153;52.316;21.166;2023-10-08T13:36:28;14.60;99.90
25208;DHT22;13153;52.316;21.166;2023-10-08T13:38:54;14.60;99.90
25208;DHT22;13153;52.316;21.166;2023-10-08T13:41:20;14.60;99.90
25208;DHT22;13153;52.316;21.166;2023-10-08T13:43:48;14.50;99.90
25208;DHT22;13153;52.316;21.166;2023-10-08T13:46:18;14.40;99.90
25208;DHT22;13153;52.316;21.166;2023-10-08T13:48:48;14.40;99.90
25208;DHT22;13153;52.316;21.166;2023-10-08T13:51:21;14.30;99.90
25208;DHT22;13153;52.316;21.166;2023-10-08T13:53:58;14.30;99.90
25208;DHT22;13153;52.316;21.166;2023-10-08T13:56:31;14.30;99.90
25208;DHT22;13153;52.316;21.166;2023-10-08T13:58:59;14.30;99.90
25208;DHT22;13153;52.316;21.166;2023-10-08T14:01:33;14.20;99.90
25208;DHT22;13153;52.316;21.166;2023-10-08T14:04:00;14.20;99.90
25208;DHT22;13153;52.316;21.166;2023-10-08T14:06:36;14.20;99.90
25208;DHT22;13153;52.316;21.166;2023-10-08T14:09:06;14.10;99.90
25208;DHT22;13153;52.316;21.166;2023-10-08T14:11:36;14.20;99.90
25208;DHT22;13153;52.316;21.166;2023-10-08T14:14:02;14.20;99.90
25208;DHT22;13153;52.316;21.166;2023-10-08T14:16:37;14.20;99.90
25208;DHT22;13153;52.316;21.166;2023-10-08T14:19:07;14.20;99.90
25208;DHT22;13153;52.316;21.166;2023-10-08T14:21:38;14.10;99.90
25208;DHT22;13153;52.316;21.166;2023-10-08T14:24:16;14.10;99.90
25208;DHT22;13153;52.316;21.166;2023-10-08T14:26:42;14.10;99.90
25208;DHT22;13153;52.316;21.166;2023-10-08T14:29:09;14.10;99.90
25208;DHT22;13153;52.316;21.166;2023-10-08T14:31:42;14.00;99.90
25208;DHT22;13153;52.316;21.166;2023-10-08T14:34:14;14.00;99.90
25208;DHT22;13153;52.316;21.166;2023-10-08T14:36:49;14.00;99.90
25208;DHT22;13153;52.316;21.166;2023-10-08T14:39:34;14.00;1.00
25208;DHT22;13153;52.316;21.166;2023-10-08T14:42:19;14.00;1.00
25208;DHT22;13153;52.316;21.166;2023-10-08T14:45:04;14.00;99.90
25208;DHT22;13153;52.316;21.166;2023-10-08T14:47:39;14.00;99.90
25208;DHT22;13153;52.316;21.166;2023-10-08T14:50:06;14.00;99.90
25208;DHT22;13153;52.316;21.166;2023-10-08T14:52:42;13.80;99.90
25208;DHT22;13153;52.316;21.166;2023-10-08T14:55:12;13.80;99.90
25208;DHT22;13153;52.316;21.166;2023-10-08T14:57:41;13.70;99.90
25208;DHT22;13153;52.316;21.166;2023-10-08T15:00:08;13.70;99.90
25208;DHT22;13153;52.316;21.166;2023-10-08T15:02:36;13.60;99.90
25208;DHT22;13153;52.316;21.166;2023-10-08T15:05:04;13.50;99.90
25208;DHT22;13153;52.316;21.166;2023-10-08T15:07:31;13.50;1.00
25208;DHT22;13153;52.316;21.166;2023-10-08T15:09:58;13.50;99.90
25208;DHT22;13153;52.316;21.166;2023-10-08T15:12:26;13.50;99.90
25208;DHT22;13153;52.316;21.166;2023-10-08T15:14:53;13.50;1.00
25208;DHT22;13153;52.316;21.166;2023-10-08T15:17:19;13.40;99.90
25208;DHT22;13153;52.316;21.166;2023-10-08T15:19:45;13.30;1.00
25208;DHT22;13153;52.316;21.166;2023-10-08T15:22:13;13.30;99.90
25208;DHT22;13153;52.316;21.166;2023-10-08T15:24:39;13.30;1.00
25208;DHT22;13153;52.316;21.166;2023-10-08T15:27:06;13.20;1.00
25208;DHT22;13153;52.316;21.166;2023-10-08T15:29:32;13.10;1.00
25208;DHT22;13153;52.316;21.166;2023-10-08T15:31:59;13.10;99.90
25208;DHT22;13153;52.316;21.166;2023-10-08T15:34:25;13.00;1.00
25208;DHT22;13153;52.316;21.166;2023-10-08T15:36:55;13.00;1.00
25208;DHT22;13153;52.316;21.166;2023-10-08T15:39:21;13.00;99.90
25208;DHT22;13153;52.316;21.166;2023-10-08T15:41:50;12.90;1.00
25208;DHT22;13153;52.316;21.166;2023-10-08T15:44:20;12.90;99.90
25208;DHT22;13153;52.316;21.166;2023-10-08T15:46:47;12.90;99.90
25208;DHT22;13153;52.316;21.166;2023-10-08T15:49:14;12.80;99.90
25208;DHT22;13153;52.316;21.166;2023-10-08T15:51:40;12.70;99.90
25208;DHT22;13153;52.316;21.166;2023-10-08T15:54:06;12.70;99.90
25208;DHT22;13153;52.316;21.166;2023-10-08T15:56:32;12.60;99.90
25208;DHT22;13153;52.316;21.166;2023-10-08T15:58:58;12.60;99.90
25208;DHT22;13153;52.316;21.166;2023-10-08T16:01:24;12.50;99.90
25208;DHT22;13153;52.316;21.166;2023-10-08T16:03:53;12.50;99.90